Time;durP1;ratioP1;P1;durP2;ratioP2;P2;SDS_P1;SDS_P2;PMS_P1;PMS_P2;Temp;Humidity;BMP_temperature;BMP_pressure;BME280_temperature;BME280_humidity;BME280_pressure;Samples;Min_cycle;Max_cycle;Signal;HPM_P1;HPM_P2
2022/03/09 00:00:10;;;;;;;29.13;18.07;;;-0.70;99.90;-1.80;100976;;;;550985;256;24140;-79
2022/03/09 00:02:35;;;;;;;33.87;19.50;;;-0.70;99.90;-1.80;100972;;;;550848;256;24176;-80
2022/03/09 00:05:04;;;;;;;32.37;18.67;;;-0.70;99.90;-1.80;100966;;;;550996;256;24140;-77
2022/03/09 00:07:36;;;;;;;43.87;23.87;;;-0.70;99.90;-1.90;100977;;;;554295;256;39755;-78
2022/03/09 00:10:04;;;;;;;36.17;18.57;;;-0.70;99.90;-1.80;100973;;;;544239;256;35836;-79
2022/03/09 00:12:29;;;;;;;20.87;12.00;;;-0.70;99.90;-1.90;100963;;;;550765;256;24161;-79
2022/03/09 00:14:56;;;;;;;21.57;10.50;;;-0.70;99.90;-1.90;100962;;;;550745;256;25189;-79
2022/03/09 00:17:28;;;;;;;29.20;17.57;;;-0.80;99.90;-1.90;100956;;;;550795;256;24189;-79
2022/03/09 00:19:52;;;;;;;37.23;20.33;;;-0.80;99.90;-1.90;100962;;;;558361;255;24225;-80
2022/03/09 00:22:20;;;;;;;36.47;20.67;;;-0.80;99.90;-1.90;100958;;;;549027;261;24222;-79
2022/03/09 00:24:48;;;;;;;35.50;20.20;;;-0.80;99.90;-1.90;100963;;;;547478;257;24115;-79
2022/03/09 00:27:16;;;;;;;34.57;20.70;;;-0.80;99.90;-2.00;100959;;;;541288;261;24206;-79
2022/03/09 00:29:44;;;;;;;41.30;23.27;;;-0.80;99.90;-1.90;100959;;;;542278;258;34730;-78
2022/03/09 00:32:13;;;;;;;21.07;10.83;;;-0.80;99.90;-1.90;100961;;;;550965;256;24148;-78
2022/03/09 00:34:40;;;;;;;34.93;19.77;;;-0.80;99.90;-1.90;100960;;;;550824;256;24147;-78
2022/03/09 00:37:11;;;;;;;37.60;22.33;;;-0.80;99.90;-1.90;100957;;;;548541;256;24145;-80
2022/03/09 00:39:36;;;;;;;38.10;22.70;;;-0.80;99.90;-2.00;100962;;;;550633;256;24206;-77
2022/03/09 00:42:04;;;;;;;36.70;22.17;;;-0.80;99.90;-2.00;100964;;;;550490;256;24146;-76
2022/03/09 00:44:32;;;;;;;35.33;22.43;;;-0.80;99.90;-2.00;100966;;;;555716;256;24215;-78
2022/03/09 00:46:59;;;;;;;38.07;20.97;;;-0.80;99.90;-2.00;100962;;;;558636;255;24151;-79
2022/03/09 00:49:27;;;;;;;39.27;22.13;;;-0.90;99.90;-2.00;100971;;;;550955;254;24168;-79
2022/03/09 00:51:58;;;;;;;35.33;20.60;;;-0.90;99.90;-2.00;100977;;;;552077;256;24238;-82
2022/03/09 00:54:23;;;;;;;39.60;21.47;;;-0.90;99.90;-2.10;100970;;;;551563;256;24143;-80
2022/03/09 00:56:51;;;;;;;40.43;23.50;;;-0.90;99.90;-2.10;100977;;;;551360;256;24202;-77
2022/03/09 00:59:19;;;;;;;36.23;20.77;;;-1.00;99.90;-2.10;100977;;;;551458;256;24148;-81
2022/03/09 01:01:47;;;;;;;36.57;20.80;;;-1.00;99.90;-2.10;100978;;;;551058;256;24139;-82
2022/03/09 01:04:15;;;;;;;38.30;21.10;;;-1.00;99.90;-2.10;100987;;;;547343;261;24217;-81
2022/03/09 01:06:43;;;;;;;41.27;22.07;;;-1.00;99.90;-2.10;100980;;;;548088;258;24040;-81
2022/03/09 01:09:11;;;;;;;40.87;22.53;;;-1.00;99.90;-2.10;100985;;;;541242;261;24181;-81
2022/03/09 01:11:39;;;;;;;37.87;23.43;;;-1.00;99.90;-2.10;100979;;;;547831;257;24040;-81
2022/03/09 01:14:12;;;;;;;49.90;24.83;;;-1.00;99.90;-2.10;100980;;;;541752;261;24340;-79
2022/03/09 01:16:36;;;;;;;41.07;21.87;;;-1.00;99.90;-2.10;100983;;;;547690;258;24049;-79
2022/03/09 01:19:05;;;;;;;39.43;23.07;;;-1.00;99.90;-2.10;100979;;;;551079;256;25175;-80
2022/03/09 01:21:33;;;;;;;41.97;22.50;;;-1.10;99.90;-2.10;100978;;;;550937;256;24143;-80
2022/03/09 01:24:01;;;;;;;42.93;22.73;;;-1.00;99.90;-2.20;100975;;;;551039;256;24162;-80
2022/03/09 01:26:29;;;;;;;45.20;23.87;;;-1.10;99.90;-2.20;100982;;;;547023;260;24183;-79
2022/03/09 01:28:58;;;;;;;41.10;22.37;;;-1.10;99.90;-2.20;100986;;;;547953;258;24082;-79
2022/03/09 01:31:30;;;;;;;41.30;23.27;;;-1.10;99.90;-2.20;100981;;;;541421;261;24192;-81
2022/03/09 01:33:54;;;;;;;44.00;23.93;;;-1.10;99.90;-2.30;100986;;;;541472;261;24197;-78
2022/03/09 01:36:22;;;;;;;49.50;27.10;;;-1.20;99.90;-2.30;100976;;;;552353;256;35699;-78
2022/03/09 01:38:50;;;;;;;20.33;11.73;;;-1.20;99.90;-2.40;100971;;;;547789;258;24057;-79
2022/03/09 01:41:18;;;;;;;39.67;22.80;;;-1.20;99.90;-2.40;100976;;;;541232;261;24229;-79
2022/03/09 01:43:45;;;;;;;41.23;24.10;;;-1.20;99.90;-2.40;100975;;;;547424;257;24088;-79
2022/03/09 01:46:16;;;;;;;45.15;20.40;;;-1.30;99.90;-2.40;100968;;;;536390;261;35896;-79
2022/03/09 01:48:41;;;;;;;33.17;15.33;;;-1.30;99.90;-2.40;100975;;;;541118;257;24234;-80
2022/03/09 01:51:09;;;;;;;34.13;17.90;;;-1.30;99.90;-2.50;100974;;;;547926;258;24051;-78
2022/03/09 01:53:41;;;;;;;46.30;25.60;;;-1.30;99.90;-2.50;100967;;;;541190;261;24233;-77
2022/03/09 01:56:10;;;;;;;47.50;23.53;;;-1.40;99.90;-2.50;100964;;;;540972;261;24197;-79
2022/03/09 01:58:34;;;;;;;47.80;24.70;;;-1.40;99.90;-2.50;100966;;;;540888;261;24185;-77
2022/03/09 02:01:02;;;;;;;48.07;24.67;;;-1.40;99.90;-2.50;100964;;;;541265;259;24167;-78
2022/03/09 02:03:30;;;;;;;52.00;26.43;;;-1.40;99.90;-2.60;100961;;;;542358;261;24264;-77
2022/03/09 02:05:58;;;;;;;48.10;23.60;;;-1.40;99.90;-2.60;100958;;;;541914;261;24168;-78
2022/03/09 02:11:13;;;;;;;41.03;21.63;;;-1.50;99.90;-2.60;100959;;;;541567;261;24155;-78
2022/03/09 02:13:41;;;;;;;47.50;24.30;;;-1.50;99.90;-2.60;100949;;;;549368;261;24174;-77
2022/03/09 02:16:09;;;;;;;50.57;26.73;;;-1.40;99.90;-2.60;100949;;;;549438;261;24157;-78
2022/03/09 02:18:37;;;;;;;53.30;26.87;;;-1.40;99.90;-2.60;100966;;;;541680;261;24171;-79
2022/03/09 02:21:05;;;;;;;48.13;24.63;;;-1.40;99.90;-2.60;100966;;;;541339;261;24183;-78
2022/03/09 02:23:33;;;;;;;44.20;23.10;;;-1.40;99.90;-2.60;100967;;;;549142;261;24168;-77
2022/03/09 02:26:00;;;;;;;50.47;25.07;;;-1.50;99.90;-2.60;100973;;;;541435;261;24181;-77
2022/03/09 02:28:32;;;;;;;45.93;23.03;;;-1.50;99.90;-2.60;100970;;;;541576;261;25253;-79
2022/03/09 02:30:56;;;;;;;42.10;24.03;;;-1.50;99.90;-2.60;100974;;;;541387;261;24266;-78
2022/03/09 02:33:24;;;;;;;47.07;22.90;;;-1.50;99.90;-2.60;100965;;;;541736;261;24191;-78
2022/03/09 02:35:53;;;;;;;46.13;25.90;;;-1.50;99.90;-2.60;100972;;;;541536;261;24161;-80
2022/03/09 02:38:21;;;;;;;47.30;24.10;;;-1.50;99.90;-2.50;100985;;;;549395;261;24168;-81
2022/03/09 02:40:49;;;;;;;47.87;24.70;;;-1.40;99.90;-2.50;100975;;;;549143;261;24207;-81
2022/03/09 02:43:17;;;;;;;43.03;23.50;;;-1.40;99.90;-2.60;100979;;;;541355;261;24206;-80
2022/03/09 02:45:49;;;;;;;42.97;24.00;;;-1.40;99.90;-2.60;100986;;;;541723;261;24177;-81
2022/03/09 02:48:14;;;;;;;42.90;24.70;;;-1.40;99.90;-2.60;100989;;;;541713;261;24259;-83
2022/03/09 02:50:42;;;;;;;45.17;23.97;;;-1.40;99.90;-2.60;100989;;;;549453;258;24189;-82
2022/03/09 02:53:10;;;;;;;47.83;23.50;;;-1.40;99.90;-2.60;100986;;;;541165;261;24184;-79
2022/03/09 02:55:38;;;;;;;46.23;24.33;;;-1.40;99.90;-2.60;100990;;;;541778;261;24194;-79
2022/03/09 02:58:06;;;;;;;42.33;23.80;;;-1.40;99.90;-2.60;100993;;;;541767;261;24202;-80
2022/03/09 03:00:34;;;;;;;41.00;22.17;;;-1.50;99.90;-2.60;100994;;;;542083;261;24215;-80
2022/03/09 03:03:02;;;;;;;49.87;23.37;;;-1.40;99.90;-2.60;100995;;;;541791;261;24192;-81
2022/03/09 03:05:30;;;;;;;44.67;25.27;;;-1.40;99.90;-2.50;100991;;;;541695;261;24194;-79
2022/03/09 03:07:57;;;;;;;44.80;23.53;;;-1.40;99.90;-2.50;100992;;;;541712;261;24206;-79
2022/03/09 03:10:25;;;;;;;43.27;22.60;;;-1.40;99.90;-2.50;100987;;;;549528;261;24161;-81
2022/03/09 03:12:53;;;;;;;42.43;23.03;;;-1.40;99.90;-2.50;100988;;;;541946;260;24240;-79
2022/03/09 03:15:22;;;;;;;40.10;22.53;;;-1.40;99.90;-2.50;100995;;;;542610;261;24168;-78
2022/03/09 03:17:51;;;;;;;43.77;23.97;;;-1.40;99.90;-2.60;100991;;;;542296;261;24223;-79
2022/03/09 03:20:19;;;;;;;42.43;23.63;;;-1.40;99.90;-2.60;100986;;;;542464;261;24195;-81
2022/03/09 03:22:47;;;;;;;45.20;23.37;;;-1.40;99.90;-2.60;100996;;;;550266;261;24183;-81
2022/03/09 03:25:17;;;;;;;51.70;24.63;;;-1.40;99.90;-2.60;100993;;;;542321;261;24166;-80
2022/03/09 03:27:42;;;;;;;41.97;22.37;;;-1.40;99.90;-2.60;100998;;;;541991;261;24253;-81
2022/03/09 03:30:10;;;;;;;46.63;23.83;;;-1.50;99.90;-2.60;100991;;;;541820;261;24242;-82
2022/03/09 03:32:38;;;;;;;42.17;21.67;;;-1.50;99.90;-2.60;101000;;;;549551;261;24171;-79
2022/03/09 03:35:06;;;;;;;39.00;22.87;;;-1.50;99.90;-2.70;101011;;;;541690;261;24203;-82
2022/03/09 03:37:37;;;;;;;38.90;22.07;;;-1.50;99.90;-2.70;101010;;;;541802;261;24180;-82
2022/03/09 03:40:02;;;;;;;45.00;22.17;;;-1.50;99.90;-2.70;101012;;;;549781;258;24167;-81
2022/03/09 03:42:30;;;;;;;43.63;23.40;;;-1.50;99.90;-2.70;101019;;;;541785;261;24220;-81
2022/03/09 03:45:02;;;;;;;41.87;24.13;;;-1.60;99.90;-2.80;101017;;;;541636;261;24164;-80
2022/03/09 03:47:30;;;;;;;39.67;22.80;;;-1.60;99.90;-2.80;101034;;;;541948;261;24168;-80
2022/03/09 03:49:54;;;;;;;49.77;25.87;;;-1.60;99.90;-2.80;101018;;;;546034;259;24198;-79
2022/03/09 03:52:22;;;;;;;45.93;23.47;;;-1.70;99.90;-2.80;101030;;;;541038;261;24188;-78
2022/03/09 03:54:50;;;;;;;43.20;23.13;;;-1.60;99.90;-2.80;101030;;;;541184;261;24224;-77
2022/03/09 03:57:18;;;;;;;44.87;23.37;;;-1.70;99.90;-2.80;101028;;;;541101;261;24202;-78
2022/03/09 03:59:48;;;;;;;45.73;22.43;;;-1.70;99.90;-2.90;101032;;;;540993;261;24203;-77
2022/03/09 04:02:16;;;;;;;44.93;23.07;;;-1.70;99.90;-2.90;101027;;;;541121;261;24170;-77
2022/03/09 04:04:44;;;;;;;41.67;21.13;;;-1.70;99.90;-2.90;101028;;;;541190;261;24154;-77
2022/03/09 04:07:13;;;;;;;45.97;22.73;;;-1.70;99.90;-2.90;101034;;;;541352;261;24198;-78
2022/03/09 04:09:41;;;;;;;38.87;21.13;;;-1.70;99.90;-2.90;101025;;;;541365;261;24165;-81
2022/03/09 04:12:12;;;;;;;42.07;22.70;;;-1.70;99.90;-3.00;101024;;;;541408;261;24192;-79
2022/03/09 04:14:38;;;;;;;44.23;21.67;;;-1.80;99.90;-3.00;101026;;;;548802;259;24190;-77
2022/03/09 04:17:06;;;;;;;46.23;22.77;;;-1.80;99.90;-3.00;101029;;;;541244;261;24172;-80
2022/03/09 04:19:34;;;;;;;44.73;23.20;;;-1.80;99.90;-3.00;101025;;;;541276;261;24183;-78
2022/03/09 04:22:05;;;;;;;45.03;22.50;;;-1.80;99.90;-3.00;101021;;;;541314;261;24164;-78
2022/03/09 04:24:33;;;;;;;45.50;23.40;;;-1.80;99.90;-3.00;101027;;;;541459;260;24221;-80
2022/03/09 04:26:58;;;;;;;48.63;24.03;;;-1.80;99.90;-2.90;101023;;;;542429;261;24176;-79
2022/03/09 04:29:26;;;;;;;46.30;22.30;;;-1.80;99.90;-3.00;101027;;;;542657;261;24190;-78
2022/03/09 04:31:54;;;;;;;40.30;22.63;;;-1.80;99.90;-3.00;101018;;;;542467;261;24183;-78
2022/03/09 04:34:24;;;;;;;47.93;23.33;;;-1.80;99.90;-3.00;101024;;;;542354;261;24178;-79
2022/03/09 04:36:50;;;;;;;57.05;27.92;;;-1.80;99.90;-3.00;101030;;;;540834;261;35901;-79
2022/03/09 04:39:17;;;;;;;29.70;13.23;;;-1.80;99.90;-3.00;101028;;;;542310;261;24169;-79
2022/03/09 04:41:46;;;;;;;45.70;23.47;;;-1.80;99.90;-3.00;101027;;;;550014;261;24172;-78
2022/03/09 04:44:15;;;;;;;52.90;25.93;;;-1.80;99.90;-3.00;101030;;;;542022;261;24242;-80
2022/03/09 04:46:45;;;;;;;48.73;24.97;;;-1.80;99.90;-3.00;101032;;;;541999;261;24201;-79
2022/03/09 04:49:13;;;;;;;44.23;23.40;;;-1.90;99.90;-3.00;101031;;;;541762;261;24198;-79
2022/03/09 04:51:40;;;;;;;45.03;22.83;;;-1.90;99.90;-3.10;101016;;;;541560;261;24200;-80
2022/03/09 04:54:08;;;;;;;44.03;21.40;;;-1.90;99.90;-3.10;101021;;;;541785;261;24182;-77
2022/03/09 04:56:37;;;;;;;46.93;23.30;;;-1.90;99.90;-3.10;101025;;;;541572;261;24156;-79
2022/03/09 04:59:04;;;;;;;50.33;25.43;;;-1.90;99.90;-3.10;101032;;;;545009;261;24172;-78
2022/03/09 05:01:32;;;;;;;50.03;23.90;;;-1.90;99.90;-3.10;101028;;;;547662;258;24244;-78
2022/03/09 05:04:00;;;;;;;47.03;23.43;;;-1.90;99.90;-3.10;101025;;;;540999;261;24152;-77
2022/03/09 05:06:29;;;;;;;43.77;22.90;;;-1.90;99.90;-3.10;101032;;;;547572;258;24134;-78
2022/03/09 05:08:57;;;;;;;45.50;23.63;;;-1.90;99.90;-3.10;101037;;;;540989;261;24172;-78
2022/03/09 05:11:26;;;;;;;44.33;24.53;;;-1.90;99.90;-3.10;101030;;;;547687;258;24029;-77
2022/03/09 05:13:55;;;;;;;50.70;23.50;;;-1.90;99.90;-3.20;101031;;;;541064;261;24190;-78
2022/03/09 05:16:23;;;;;;;51.90;23.77;;;-2.00;99.90;-3.10;101036;;;;547560;258;24063;-78
2022/03/09 05:18:51;;;;;;;47.27;22.83;;;-1.90;99.90;-3.10;101029;;;;541073;261;24180;-78
2022/03/09 05:21:19;;;;;;;45.70;23.80;;;-1.90;99.90;-3.10;101039;;;;543655;258;24032;-78
2022/03/09 05:23:47;;;;;;;47.43;23.70;;;-1.90;99.90;-3.10;101035;;;;541226;261;24201;-78
2022/03/09 05:26:14;;;;;;;44.40;22.63;;;-1.90;99.90;-3.00;101039;;;;547649;257;24067;-79
2022/03/09 05:28:42;;;;;;;46.87;22.10;;;-1.90;99.90;-3.00;101030;;;;550972;256;24191;-79
2022/03/09 05:31:10;;;;;;;48.80;22.70;;;-1.90;99.90;-3.00;101030;;;;551073;256;24162;-79
2022/03/09 05:33:38;;;;;;;46.37;22.77;;;-1.80;99.90;-2.90;101039;;;;551090;256;24143;-79
2022/03/09 05:36:10;;;;;;;42.30;21.17;;;-1.80;99.90;-2.90;101034;;;;551514;255;24165;-78
2022/03/09 05:38:35;;;;;;;50.07;23.90;;;-1.70;99.90;-2.90;101037;;;;559566;256;24163;-78
2022/03/09 05:41:04;;;;;;;48.23;23.87;;;-1.70;99.90;-2.80;101043;;;;551777;256;24275;-79
2022/03/09 05:43:31;;;;;;;53.57;23.93;;;-1.70;99.90;-2.70;101046;;;;559208;256;24160;-78
2022/03/09 05:45:59;;;;;;;53.23;25.27;;;-1.60;99.90;-2.70;101047;;;;551344;256;24155;-77
2022/03/09 05:48:27;;;;;;;53.00;23.63;;;-1.60;99.90;-2.70;101049;;;;559557;256;24124;-79
2022/03/09 05:50:55;;;;;;;53.03;24.63;;;-1.50;99.90;-2.60;101063;;;;551534;256;24172;-79
2022/03/09 05:53:23;;;;;;;54.20;24.40;;;-1.50;99.90;-2.60;101061;;;;551761;256;24158;-80
2022/03/09 05:55:51;;;;;;;52.67;24.93;;;-1.40;99.90;-2.50;101072;;;;551252;256;24190;-79
2022/03/09 05:58:19;;;;;;;50.57;24.10;;;-1.40;99.90;-2.40;101055;;;;551727;256;24165;-79
2022/03/09 06:00:47;;;;;;;52.57;24.53;;;-1.30;99.90;-2.40;101052;;;;559564;256;24198;-79
2022/03/09 06:03:15;;;;;;;51.93;25.13;;;-1.30;99.90;-2.30;101062;;;;551089;256;24162;-80
2022/03/09 06:05:43;;;;;;;51.83;23.77;;;-1.20;99.90;-2.30;101062;;;;556644;256;24174;-79
2022/03/09 06:08:11;;;;;;;51.77;23.17;;;-1.20;99.90;-2.20;101062;;;;559248;256;24141;-80
2022/03/09 06:10:39;;;;;;;49.97;22.73;;;-1.10;99.90;-2.20;101058;;;;551351;256;24150;-79
2022/03/09 06:13:07;;;;;;;53.23;24.00;;;-1.00;99.90;-2.10;101053;;;;550822;256;24151;-78
2022/03/09 06:15:37;;;;;;;51.43;23.83;;;-1.00;99.90;-2.00;101068;;;;550817;256;24174;-78
2022/03/09 06:18:03;;;;;;;47.43;23.87;;;-0.80;99.90;-2.00;101067;;;;538913;261;24189;-79
2022/03/09 06:20:35;;;;;;;51.10;25.17;;;-0.80;99.90;-1.90;101070;;;;547511;258;24075;-80
2022/03/09 06:23:01;;;;;;;48.57;23.40;;;-0.70;99.90;-1.80;101070;;;;548731;256;24195;-78
2022/03/09 06:25:30;;;;;;;49.70;25.20;;;-0.60;99.90;-1.70;101065;;;;551338;256;24127;-80
2022/03/09 06:27:58;;;;;;;48.70;22.07;;;-0.60;99.90;-1.00;101075;;;;551315;256;24152;-80
2022/03/09 06:30:25;;;;;;;34.77;14.90;;;-0.10;99.90;1.00;101093;;;;551503;256;24153;-76
2022/03/09 06:32:53;;;;;;;33.87;13.27;;;1.50;99.90;3.30;101100;;;;559066;256;24130;-77
2022/03/09 06:35:21;;;;;;;46.97;15.87;;;3.60;99.90;5.40;101109;;;;555134;256;24161;-77
2022/03/09 06:37:50;;;;;;;33.63;15.07;;;7.20;99.90;7.00;101116;;;;558851;254;24145;-78
2022/03/09 06:40:17;;;;;;;34.80;17.83;;;7.20;99.90;8.50;101122;;;;558801;255;24263;-77
2022/03/09 06:42:45;;;;;;;23.70;15.00;;;8.80;99.90;10.00;101125;;;;558864;254;24135;-77
2022/03/09 06:45:13;;;;;;;22.33;13.53;;;10.30;99.90;11.60;101134;;;;556063;256;25215;-77
2022/03/09 06:47:45;;;;;;;22.17;13.80;;;11.90;99.90;13.20;101146;;;;559234;255;24174;-78
2022/03/09 06:50:13;;;;;;;17.40;12.37;;;13.50;99.90;14.50;101156;;;;559569;253;24147;-78
2022/03/09 06:52:38;;;;;;;16.57;12.40;;;16.10;99.90;15.70;101153;;;;551077;256;24164;-77
2022/03/09 06:55:07;;;;;;;18.67;12.47;;;16.10;99.90;16.70;101156;;;;549551;256;24167;-78
2022/03/09 06:57:37;;;;;;;17.37;11.73;;;17.10;99.90;17.40;101160;;;;559108;256;24151;-78
2022/03/09 07:00:02;;;;;;;15.83;11.97;;;17.90;95.30;18.10;101160;;;;558571;254;24146;-79
2022/03/09 07:02:30;;;;;;;17.23;12.53;;;18.70;85.20;18.90;101155;;;;550655;256;23174;-79
2022/03/09 07:04:58;;;;;;;15.60;13.03;;;19.40;73.70;19.50;101159;;;;550844;256;23178;-78
2022/03/09 07:07:26;;;;;;;14.63;12.63;;;20.10;65.20;19.90;101161;;;;550570;256;23185;-78
2022/03/09 07:09:53;;;;;;;15.57;12.40;;;20.50;59.90;20.20;101166;;;;550733;256;23168;-78
2022/03/09 07:12:21;;;;;;;17.93;13.37;;;20.80;57.00;20.40;101161;;;;550574;256;24132;-79
2022/03/09 07:14:49;;;;;;;15.27;13.17;;;21.00;55.60;20.80;101167;;;;558855;256;24146;-79
2022/03/09 07:17:17;;;;;;;14.13;12.63;;;21.30;54.10;21.30;101165;;;;550658;256;24251;-79
2022/03/09 07:19:45;;;;;;;15.67;13.13;;;21.70;53.10;21.90;101168;;;;558606;256;24249;-80
2022/03/09 07:22:16;;;;;;;15.67;13.70;;;22.30;51.60;22.30;101168;;;;550692;256;24198;-79
2022/03/09 07:24:41;;;;;;;14.83;13.23;;;22.70;50.60;22.40;101182;;;;550274;256;24153;-79
2022/03/09 07:27:12;;;;;;;15.30;13.37;;;22.90;48.70;22.30;101175;;;;550433;256;24185;-79
2022/03/09 07:29:37;;;;;;;20.80;13.10;;;22.90;48.00;22.70;101180;;;;550198;256;24187;-78
2022/03/09 07:32:08;;;;;;;14.67;12.33;;;23.60;47.30;23.20;101178;;;;550726;256;24145;-79
2022/03/09 07:34:33;;;;;;;15.30;13.67;;;23.50;47.20;23.70;101187;;;;558605;256;24228;-78
2022/03/09 07:37:01;;;;;;;14.23;12.83;;;24.00;46.00;24.20;101189;;;;550738;256;24209;-79
2022/03/09 07:39:32;;;;;;;14.73;13.27;;;24.60;45.30;24.70;101192;;;;550719;256;23146;-80
2022/03/09 07:41:57;;;;;;;17.93;14.03;;;25.20;44.40;25.30;101192;;;;550347;256;23165;-80
2022/03/09 07:44:25;;;;;;;15.73;13.87;;;25.70;43.60;25.80;101199;;;;548406;256;24180;-79
2022/03/09 07:46:57;;;;;;;15.37;13.77;;;26.20;42.60;26.40;101199;;;;558788;256;24194;-78
2022/03/09 07:49:21;;;;;;;16.37;14.68;;;26.80;42.00;27.30;101214;;;;545614;256;46649;-80
2022/03/09 07:51:50;;;;;;;16.48;14.77;;;28.10;39.70;27.40;101207;;;;550742;256;23156;-80
2022/03/09 07:54:18;;;;;;;12.52;11.32;;;28.10;39.60;27.50;101219;;;;550429;256;23164;-79
2022/03/09 07:56:45;;;;;;;13.45;9.88;;;28.30;38.90;27.50;101219;;;;550439;256;23167;-80
2022/03/09 07:59:13;;;;;;;11.57;10.18;;;28.20;38.60;27.80;101222;;;;558907;255;23156;-81
2022/03/09 08:01:41;;;;;;;10.60;9.63;;;28.30;39.20;28.20;101217;;;;551523;256;23155;-80
2022/03/09 08:04:09;;;;;;;9.35;8.38;;;28.80;37.80;28.60;101216;;;;559479;256;24135;-79
2022/03/09 08:06:40;;;;;;;9.35;8.30;;;29.10;37.30;29.20;101223;;;;559192;254;23196;-80
2022/03/09 08:09:05;;;;;;;8.68;7.40;;;29.70;36.90;29.30;101226;;;;548244;256;23174;-84
2022/03/09 08:11:33;;;;;;;9.45;7.57;;;29.90;36.20;29.00;101225;;;;555123;256;24133;-83
2022/03/09 08:14:01;;;;;;;8.40;7.32;;;29.70;36.20;28.90;101225;;;;558896;255;23191;-80
2022/03/09 08:16:29;;;;;;;7.30;6.25;;;29.50;35.90;29.30;101224;;;;559066;254;23158;-79
2022/03/09 08:18:57;;;;;;;7.05;6.35;;;29.80;36.40;29.60;101223;;;;558768;256;24204;-78
2022/03/09 08:21:25;;;;;;;8.77;5.57;;;30.00;35.40;29.80;101227;;;;558928;254;23181;-79
2022/03/09 08:23:53;;;;;;;8.32;6.28;;;30.30;35.20;29.90;101225;;;;550775;256;23160;-79
2022/03/09 08:26:20;;;;;;;5.20;4.70;;;30.60;34.90;30.30;101226;;;;559282;256;23279;-80
2022/03/09 08:28:49;;;;;;;6.00;5.43;;;31.10;34.30;30.50;101235;;;;550975;256;23169;-79
2022/03/09 08:31:21;;;;;;;6.15;4.45;;;31.10;34.30;30.90;101233;;;;558784;255;24224;-80
2022/03/09 08:33:48;;;;;;;5.10;4.65;;;31.50;33.80;31.00;101236;;;;550768;256;23149;-81
2022/03/09 08:36:16;;;;;;;7.82;3.62;;;31.70;33.20;31.20;101239;;;;558964;256;23166;-79
2022/03/09 08:38:44;;;;;;;2.78;2.53;;;31.90;33.20;31.30;101237;;;;558875;255;23181;-81
2022/03/09 08:41:12;;;;;;;5.30;2.67;;;31.90;32.60;31.00;101232;;;;558832;256;23194;-78
2022/03/09 08:43:40;;;;;;;4.15;3.40;;;31.80;32.70;31.00;101234;;;;558885;255;23153;-78
2022/03/09 08:46:07;;;;;;;6.12;3.83;;;31.90;32.60;31.40;101235;;;;554011;256;35763;-80
2022/03/09 08:48:38;;;;;;;4.57;3.67;;;32.20;32.50;31.30;101239;;;;555126;252;23187;-81
2022/03/09 08:51:07;;;;;;;11.12;8.35;;;32.30;32.40;31.40;101240;;;;558840;256;23140;-79
2022/03/09 08:53:37;;;;;;;5.03;3.42;;;32.40;32.30;31.40;101247;;;;558770;255;23175;-80
2022/03/09 08:56:02;;;;;;;14.02;11.52;;;32.40;32.20;31.40;101252;;;;558450;254;24227;-80
2022/03/09 08:58:30;;;;;;;3.28;2.95;;;32.50;31.90;31.30;101255;;;;550618;256;23150;-80
2022/03/09 09:00:58;;;;;;;5.43;2.92;;;32.30;31.50;31.30;101250;;;;558784;255;23247;-80
2022/03/09 09:03:36;;;;;;;4.55;3.37;;;32.10;31.80;31.00;101250;;;;548060;256;23162;-82
2022/03/09 09:06:06;;;;;;;3.50;2.12;;;32.10;31.80;30.80;101255;;;;555877;256;23165;-80
2022/03/09 09:08:31;;;;;;;4.80;2.87;;;31.90;31.50;30.90;101254;;;;558635;256;23179;-81
2022/03/09 09:10:59;;;;;;;6.18;4.10;;;32.00;31.60;30.90;101262;;;;559183;255;23163;-80
2022/03/09 09:13:27;;;;;;;6.90;3.10;;;32.00;31.60;30.90;101268;;;;559968;256;23184;-81
2022/03/09 09:15:59;;;;;;;4.57;2.90;;;32.10;31.60;31.00;101269;;;;551476;256;23157;-81
2022/03/09 09:18:25;;;;;;;5.28;2.90;;;32.30;31.30;31.20;101274;;;;559523;256;23146;-79
2022/03/09 09:20:56;;;;;;;4.90;2.70;;;32.30;31.30;31.10;101278;;;;559088;254;24177;-80
2022/03/09 09:23:24;;;;;;;5.70;2.20;;;32.40;30.70;30.10;101280;;;;551011;256;23157;-82
2022/03/09 09:25:48;;;;;;;2.85;2.15;;;31.80;30.90;30.10;101274;;;;551004;256;24206;-80
2022/03/09 09:28:17;;;;;;;3.97;2.10;;;31.60;31.30;30.50;101270;;;;555202;256;23251;-78
2022/03/09 09:30:44;;;;;;;4.05;2.17;;;31.70;31.30;30.50;101281;;;;558707;254;23167;-78
2022/03/09 09:33:12;;;;;;;4.12;2.87;;;31.90;30.50;30.30;101281;;;;559114;256;24176;-78
2022/03/09 09:35:43;;;;;;;5.85;4.85;;;31.70;30.90;30.00;101276;;;;559145;256;23154;-80
2022/03/09 09:38:11;;;;;;;4.50;3.25;;;31.40;31.00;29.00;101280;;;;559115;256;23156;-78
2022/03/09 09:40:45;;;;;;;4.45;2.50;;;30.70;31.20;26.90;101282;;;;559097;256;23168;-78
2022/03/09 09:43:15;;;;;;;2.90;2.33;;;29.10;32.00;24.90;101277;;;;550906;256;23175;-77
2022/03/09 09:45:43;;;;;;;7.63;3.80;;;27.20;33.20;23.20;101276;;;;551018;256;24124;-78
2022/03/09 09:48:11;;;;;;;6.90;1.93;;;25.20;35.30;22.00;101273;;;;556220;256;23163;-79
2022/03/09 09:50:39;;;;;;;4.27;1.83;;;22.80;38.70;21.20;101272;;;;558596;253;24205;-77
2022/03/09 09:53:08;;;;;;;3.17;1.83;;;22.00;39.90;20.60;101272;;;;550594;256;24255;-77
2022/03/09 09:55:37;;;;;;;2.33;1.93;;;21.60;41.20;20.30;101267;;;;550407;256;24131;-78
2022/03/09 09:58:10;;;;;;;5.07;2.40;;;21.70;41.00;20.40;101275;;;;558326;255;24140;-78
2022/03/09 10:00:33;;;;;;;4.67;2.60;;;21.70;40.90;21.10;101284;;;;549297;256;24136;-78
2022/03/09 10:03:01;;;;;;;4.20;1.90;;;22.30;40.50;22.00;101280;;;;550512;256;24140;-77
2022/03/09 10:05:32;;;;;;;3.60;2.00;;;23.10;39.20;22.30;101287;;;;554817;256;24158;-77
2022/03/09 10:08:10;;;;;;;3.63;1.90;;;23.70;38.30;22.50;101280;;;;558444;255;23165;-80
2022/03/09 10:10:40;;;;;;;2.53;1.93;;;24.00;37.90;22.90;101282;;;;558863;256;24191;-80
2022/03/09 10:13:39;;;;;;;5.30;2.13;;;24.40;37.80;22.90;101285;;;;550711;256;24138;-82
2022/03/09 10:16:21;;;;;;;5.13;2.60;;;24.70;37.30;22.90;101292;;;;550401;256;24149;-81
2022/03/09 10:18:54;;;;;;;4.67;2.43;;;24.60;37.30;22.80;101291;;;;558898;254;24183;-81
2022/03/09 10:21:26;;;;;;;8.80;2.50;;;24.40;37.40;22.60;101297;;;;550717;256;24131;-81
2022/03/09 10:23:59;;;;;;;3.67;2.20;;;24.40;37.40;22.40;101301;;;;559914;254;24127;-80
2022/03/09 10:26:30;;;;;;;6.97;1.77;;;24.20;37.70;22.10;101294;;;;551753;256;23194;-78
2022/03/09 10:28:58;;;;;;;11.40;1.90;;;24.00;37.70;21.50;101306;;;;551490;256;24160;-80
2022/03/09 10:31:41;;;;;;;3.90;2.03;;;23.50;38.00;20.90;101308;;;;551100;256;24152;-79
2022/03/09 10:34:29;;;;;;;6.97;2.13;;;22.90;39.30;20.30;101302;;;;552220;256;24234;-77
2022/03/09 10:37:08;;;;;;;6.00;1.50;;;22.30;39.50;19.30;101307;;;;558771;256;24153;-78
2022/03/09 10:39:36;;;;;;;5.03;1.80;;;21.50;40.70;18.70;101306;;;;559856;256;24206;-77
2022/03/09 10:42:03;;;;;;;5.27;1.83;;;20.80;41.80;17.90;101311;;;;551288;256;23180;-77
2022/03/09 10:44:43;;;;;;;1.73;1.27;;;19.90;42.90;17.30;101323;;;;551091;256;24144;-78
2022/03/09 10:47:14;;;;;;;4.07;2.20;;;19.20;44.40;16.70;101307;;;;559474;256;24165;-79
2022/03/09 10:49:39;;;;;;;6.07;2.40;;;18.50;45.60;16.00;101311;;;;551346;256;24158;-78
2022/03/09 10:52:08;;;;;;;4.80;2.00;;;17.70;47.30;15.30;101311;;;;559159;256;24148;-80
2022/03/09 10:54:35;;;;;;;3.37;2.03;;;16.80;48.80;14.20;101300;;;;559288;256;24163;-76
2022/03/09 10:57:06;;;;;;;5.47;2.43;;;15.70;50.50;13.20;101302;;;;559138;256;24152;-78
2022/03/09 10:59:52;;;;;;;2.20;1.57;;;14.60;52.60;12.60;101297;;;;558732;256;24177;-81
2022/03/09 11:02:20;;;;;;;4.80;1.63;;;13.70;54.10;11.80;101305;;;;550890;256;24268;-78
2022/03/09 11:05:09;;;;;;;6.20;2.03;;;12.80;56.10;11.00;101300;;;;550811;256;24166;-77
2022/03/09 11:07:37;;;;;;;8.30;2.53;;;12.00;58.10;10.20;101305;;;;551012;256;24246;-77